Monday, November 24, 2014
06:52 UTC
  |  Log In   |  Register Free
Airport Search:

Mount Sterling-Montgomery County Airport
(KIOB)

Mount Sterling-Montgomery County Airport Diagram
No Airport Diagram Available

FAA data valid effective November 13, 2014 - January 08, 2015 (unless otherwise noted).

 
 
 
 
 
 
 
 
 
 
 
 
 
 

Current Aviation Weather for Mount Sterling-Montgomery County Airport (KIOB)

The most recent METAR observation for KIOB was updated at: 0616
METAR Summary (Translated METAR)
KIOB
240555Z AUTO 25018G26KT 7SM -RA OVC015 15/13 A2943 RMK AO2
KSYM
240550Z AUTO 20016G25KT 3SM BR FEW006 SCT016 BKN021 15/13 A2942 RMK AO2
(20.8 nm NE from KIOB)
KLEX
240554Z 22017G28KT 10SM BKN016 OVC021 15/13 A2940 RMK AO2 PK WND 21030/0511 RAE20 SLP953 P0001 60016 T01500133 10150 20128 53009
(29.6 nm SW from KIOB)
TAF Summary (Translated TAF)
KSYM
(20.8 nm NE from KIOB)
151741Z 1518/1618 VRB03KT P6SM SCT045 FM160900 00000KT 3SM BR SCT030 FM161300 22004KT P6SM SKC
KLEX
(29.6 nm SW from KIOB)
240520Z 2406/2506 19018G27KT P6SM -SHRA BKN015 TEMPO 2406/2409 3SM -SHRA BR FM241200 20021G35KT P6SM VCSH BKN010 FM241500 21020G33KT P6SM -SHRA BKN015 FM241900 23020G29KT P6SM VCSH BKN015 FM250000 24012KT P6SM BKN025
  Airport Weather Conditions for KIOB

 Current Weather at IOB
59° F
Light Rain and Breezy
Southwest winds at 20.7 mph
IOB NOAA Radar

Pressure: 29.41 in
Humidity: 88%
Wind: from the Southwest at 20.7 gusting to 34.5 MPH (18 gusting to 30 KT)
Dew Point: 55.4°F
Visibility: 7.00 mi


Airport Weather Forecast for KIOB

Translated METAR and TAF for KIOB
Translated METAR for KIOB (0647 UTC 24 November 2014)
found at http://aviationweather.gov/adds/metars/
 
METAR text: KIOB 240635Z AUTO 24015G23KT 10SM OVC015 15/13 A2944 RMK AO2
Conditions at: KIOB (MOUNT STERLING , KY, US) observed 0635 UTC 24 November 2014
Temperature: 15.0°C (59°F)
Dewpoint: 13.0°C (55°F) [RH = 88%]
Pressure (altimeter): 29.44 inches Hg (997.0 mb)
Winds: from the WSW (240 degrees) at 17 MPH (15 knots; 7.8 m/s)
gusting to 26 MPH (23 knots; 12.0 m/s)
Visibility: 10 or more miles (16+ km)
Ceiling: 1500 feet AGL
Clouds: overcast cloud deck at 1500 feet AGL
Weather: automated observation with no human augmentation;
there may or may not be significant weather present at this time
Translated TAF for KIOB

There is no translated TAF available for this airport

Find All Airport Services Find A Hotel Find A Rental Car Find A Golf Course Find A Restaurant $100 Hamburger



FBO's on the Field
FBO Company Facility Photos Services Transportation Aviation Fuel Prices: Prices include tax
Catering Weather Repair Courtesy Rental Type 100LL JetA JetA+ MOGAS 8087
 
Kentucky Airmotive Inc

This FBO has not yet been rated
FS:Shell
Last Updated: Nov-18
Login to update fuel prices
SS:
Contact Kentucky Airmotive IncMore FBO Information
 
Add another FBO Facility Photos Catering Weather Repair Courtesy Rental Type 100LL JetA JetA+ MOGAS 8087
Services Transportation Aviation Fuel Prices: Prices include tax


model-print
model-print
model-print
model-print